sensor_id;sensor_type;location;lat;lon;timestamp;P1;durP1;ratioP1;P2;durP2;ratioP2
26696;SDS011;14312;52.614;13.496;2024-02-23T09:25:29;0.60;;;0.60;;
26696;SDS011;14312;52.614;13.496;2024-02-23T09:28:15;0.50;;;0.50;;
26696;SDS011;14312;52.614;13.496;2024-02-23T09:31:01;0.70;;;0.70;;
26696;SDS011;14312;52.614;13.496;2024-02-23T09:33:49;1.92;;;0.80;;
26696;SDS011;14312;52.614;13.496;2024-02-23T09:36:36;0.82;;;0.65;;
26696;SDS011;14312;52.614;13.496;2024-02-23T09:39:22;0.90;;;0.70;;
26696;SDS011;14312;52.614;13.496;2024-02-23T09:42:11;1.00;;;0.90;;
26696;SDS011;14312;52.614;13.496;2024-02-23T09:44:58;0.60;;;0.60;;
26696;SDS011;14312;52.614;13.496;2024-02-23T09:47:46;0.60;;;0.60;;
26696;SDS011;14312;52.614;13.496;2024-02-23T09:50:33;1.88;;;0.70;;
26696;SDS011;14312;52.614;13.496;2024-02-23T09:53:19;0.77;;;0.77;;
26696;SDS011;14312;52.614;13.496;2024-02-23T09:56:07;0.70;;;0.70;;
26696;SDS011;14312;52.614;13.496;2024-02-23T09:58:55;0.95;;;0.75;;
26696;SDS011;14312;52.614;13.496;2024-02-23T10:01:42;0.50;;;0.50;;
26696;SDS011;14312;52.614;13.496;2024-02-23T10:04:28;1.08;;;0.70;;
26696;SDS011;14312;52.614;13.496;2024-02-23T10:07:16;2.33;;;0.70;;
26696;SDS011;14312;52.614;13.496;2024-02-23T10:10:02;0.85;;;0.75;;
26696;SDS011;14312;52.614;13.496;2024-02-23T10:12:48;0.82;;;0.80;;
26696;SDS011;14312;52.614;13.496;2024-02-23T10:15:35;2.60;;;0.75;;
26696;SDS011;14312;52.614;13.496;2024-02-23T10:18:21;0.60;;;0.60;;
26696;SDS011;14312;52.614;13.496;2024-02-23T10:21:07;0.80;;;0.70;;
26696;SDS011;14312;52.614;13.496;2024-02-23T10:23:53;0.98;;;0.77;;
26696;SDS011;14312;52.614;13.496;2024-02-23T10:26:38;0.90;;;0.50;;
26696;SDS011;14312;52.614;13.496;2024-02-23T10:29:25;0.88;;;0.40;;
26696;SDS011;14312;52.614;13.496;2024-02-23T10:32:12;2.17;;;0.60;;
26696;SDS011;14312;52.614;13.496;2024-02-23T10:35:00;1.17;;;0.65;;
26696;SDS011;14312;52.614;13.496;2024-02-23T10:37:50;1.48;;;0.88;;
26696;SDS011;14312;52.614;13.496;2024-02-23T10:40:39;0.98;;;0.68;;
26696;SDS011;14312;52.614;13.496;2024-02-23T10:43:33;1.20;;;0.80;;
26696;SDS011;14312;52.614;13.496;2024-02-23T10:46:21;0.60;;;0.60;;
26696;SDS011;14312;52.614;13.496;2024-02-23T10:49:08;1.27;;;0.90;;
26696;SDS011;14312;52.614;13.496;2024-02-23T10:51:55;1.90;;;1.10;;
26696;SDS011;14312;52.614;13.496;2024-02-23T10:54:42;1.52;;;1.08;;
26696;SDS011;14312;52.614;13.496;2024-02-23T10:57:31;0.85;;;0.60;;
26696;SDS011;14312;52.614;13.496;2024-02-23T11:00:18;1.20;;;0.73;;
26696;SDS011;14312;52.614;13.496;2024-02-23T11:03:07;0.80;;;0.60;;
26696;SDS011;14312;52.614;13.496;2024-02-23T11:05:53;0.75;;;0.65;;
26696;SDS011;14312;52.614;13.496;2024-02-23T11:08:40;1.20;;;0.80;;
26696;SDS011;14312;52.614;13.496;2024-02-23T11:11:26;1.33;;;0.90;;
26696;SDS011;14312;52.614;13.496;2024-02-23T11:14:12;1.70;;;0.80;;
26696;SDS011;14312;52.614;13.496;2024-02-23T11:16:58;0.88;;;0.60;;
26696;SDS011;14312;52.614;13.496;2024-02-23T11:19:45;0.50;;;0.50;;
26696;SDS011;14312;52.614;13.496;2024-02-23T11:22:32;1.20;;;0.68;;
26696;SDS011;14312;52.614;13.496;2024-02-23T11:25:20;0.65;;;0.60;;
26696;SDS011;14312;52.614;13.496;2024-02-23T11:28:25;0.95;;;0.60;;
26696;SDS011;14312;52.614;13.496;2024-02-23T11:31:14;1.50;;;0.80;;
26696;SDS011;14312;52.614;13.496;2024-02-23T11:34:01;0.65;;;0.50;;
26696;SDS011;14312;52.614;13.496;2024-02-23T11:36:46;0.70;;;0.70;;
26696;SDS011;14312;52.614;13.496;2024-02-23T11:39:37;1.25;;;0.80;;
26696;SDS011;14312;52.614;13.496;2024-02-23T11:42:27;1.05;;;0.65;;
26696;SDS011;14312;52.614;13.496;2024-02-23T11:45:13;0.50;;;0.50;;
26696;SDS011;14312;52.614;13.496;2024-02-23T11:47:59;1.67;;;0.85;;
26696;SDS011;14312;52.614;13.496;2024-02-23T11:50:45;1.00;;;0.70;;
26696;SDS011;14312;52.614;13.496;2024-02-23T11:53:31;1.20;;;0.82;;
26696;SDS011;14312;52.614;13.496;2024-02-23T11:56:17;0.50;;;0.50;;
26696;SDS011;14312;52.614;13.496;2024-02-23T11:59:04;0.80;;;0.70;;
26696;SDS011;14312;52.614;13.496;2024-02-23T12:01:50;0.75;;;0.60;;
26696;SDS011;14312;52.614;13.496;2024-02-23T12:04:36;1.63;;;0.80;;
26696;SDS011;14312;52.614;13.496;2024-02-23T12:07:22;2.15;;;0.88;;
26696;SDS011;14312;52.614;13.496;2024-02-23T12:10:10;1.15;;;0.80;;
26696;SDS011;14312;52.614;13.496;2024-02-23T12:12:56;0.63;;;0.60;;
26696;SDS011;14312;52.614;13.496;2024-02-23T12:15:42;0.70;;;0.70;;
26696;SDS011;14312;52.614;13.496;2024-02-23T12:18:28;1.05;;;0.77;;
26696;SDS011;14312;52.614;13.496;2024-02-23T12:21:17;1.20;;;0.70;;
26696;SDS011;14312;52.614;13.496;2024-02-23T12:24:04;1.10;;;1.00;;
26696;SDS011;14312;52.614;13.496;2024-02-23T12:26:54;1.42;;;0.73;;
26696;SDS011;14312;52.614;13.496;2024-02-23T12:29:41;1.25;;;0.80;;
26696;SDS011;14312;52.614;13.496;2024-02-23T12:32:27;1.48;;;0.90;;
26696;SDS011;14312;52.614;13.496;2024-02-23T12:35:13;1.02;;;0.70;;
26696;SDS011;14312;52.614;13.496;2024-02-23T12:38:00;1.08;;;0.80;;
26696;SDS011;14312;52.614;13.496;2024-02-23T12:40:46;1.10;;;0.85;;
26696;SDS011;14312;52.614;13.496;2024-02-23T12:43:32;0.63;;;0.63;;
26696;SDS011;14312;52.614;13.496;2024-02-23T12:46:18;1.85;;;0.90;;
26696;SDS011;14312;52.614;13.496;2024-02-23T12:49:03;0.70;;;0.70;;
26696;SDS011;14312;52.614;13.496;2024-02-23T12:51:49;2.50;;;1.00;;
26696;SDS011;14312;52.614;13.496;2024-02-23T12:54:35;1.00;;;0.80;;
26696;SDS011;14312;52.614;13.496;2024-02-23T12:57:21;1.25;;;0.73;;
26696;SDS011;14312;52.614;13.496;2024-02-23T13:00:07;1.67;;;0.80;;
26696;SDS011;14312;52.614;13.496;2024-02-23T13:02:54;2.00;;;0.90;;
26696;SDS011;14312;52.614;13.496;2024-02-23T13:05:40;1.02;;;0.85;;
26696;SDS011;14312;52.614;13.496;2024-02-23T13:08:26;1.80;;;0.90;;
26696;SDS011;14312;52.614;13.496;2024-02-23T13:11:12;1.27;;;0.80;;
26696;SDS011;14312;52.614;13.496;2024-02-23T13:13:58;1.00;;;0.90;;
26696;SDS011;14312;52.614;13.496;2024-02-23T13:16:44;1.60;;;0.98;;
26696;SDS011;14312;52.614;13.496;2024-02-23T13:19:30;0.77;;;0.77;;
26696;SDS011;14312;52.614;13.496;2024-02-23T13:22:16;1.02;;;0.90;;
26696;SDS011;14312;52.614;13.496;2024-02-23T13:25:02;1.00;;;0.80;;
26696;SDS011;14312;52.614;13.496;2024-02-23T13:27:48;1.73;;;0.90;;
26696;SDS011;14312;52.614;13.496;2024-02-23T13:30:35;0.90;;;0.77;;
26696;SDS011;14312;52.614;13.496;2024-02-23T13:33:22;1.13;;;0.70;;
26696;SDS011;14312;52.614;13.496;2024-02-23T13:36:09;1.52;;;0.90;;
26696;SDS011;14312;52.614;13.496;2024-02-23T13:38:55;0.90;;;0.80;;
26696;SDS011;14312;52.614;13.496;2024-02-23T13:41:41;1.20;;;0.80;;
26696;SDS011;14312;52.614;13.496;2024-02-23T13:44:27;4.45;;;0.90;;
26696;SDS011;14312;52.614;13.496;2024-02-23T13:47:13;1.48;;;0.80;;
26696;SDS011;14312;52.614;13.496;2024-02-23T13:49:59;2.15;;;1.25;;
26696;SDS011;14312;52.614;13.496;2024-02-23T13:52:45;1.75;;;0.80;;
26696;SDS011;14312;52.614;13.496;2024-02-23T13:55:31;1.08;;;0.95;;
26696;SDS011;14312;52.614;13.496;2024-02-23T13:58:17;2.25;;;1.00;;
26696;SDS011;14312;52.614;13.496;2024-02-23T14:01:04;2.03;;;0.88;;
26696;SDS011;14312;52.614;13.496;2024-02-23T14:03:50;2.35;;;1.13;;
26696;SDS011;14312;52.614;13.496;2024-02-23T14:06:36;1.23;;;0.80;;
26696;SDS011;14312;52.614;13.496;2024-02-23T14:09:22;0.95;;;0.90;;
26696;SDS011;14312;52.614;13.496;2024-02-23T14:12:08;1.10;;;0.70;;
26696;SDS011;14312;52.614;13.496;2024-02-23T14:14:54;1.05;;;0.80;;
26696;SDS011;14312;52.614;13.496;2024-02-23T14:17:40;1.27;;;0.70;;
26696;SDS011;14312;52.614;13.496;2024-02-23T14:20:26;1.15;;;0.70;;
26696;SDS011;14312;52.614;13.496;2024-02-23T14:23:12;1.23;;;0.90;;
26696;SDS011;14312;52.614;13.496;2024-02-23T14:25:58;1.02;;;0.80;;
26696;SDS011;14312;52.614;13.496;2024-02-23T14:28:44;1.40;;;1.00;;
26696;SDS011;14312;52.614;13.496;2024-02-23T14:31:30;2.10;;;1.00;;
26696;SDS011;14312;52.614;13.496;2024-02-23T14:34:17;3.67;;;1.23;;
26696;SDS011;14312;52.614;13.496;2024-02-23T14:37:03;3.65;;;0.98;;
26696;SDS011;14312;52.614;13.496;2024-02-23T14:39:49;2.17;;;1.10;;
26696;SDS011;14312;52.614;13.496;2024-02-23T14:42:35;1.63;;;0.80;;
26696;SDS011;14312;52.614;13.496;2024-02-23T14:45:21;1.15;;;0.93;;
26696;SDS011;14312;52.614;13.496;2024-02-23T14:48:08;1.17;;;1.00;;
26696;SDS011;14312;52.614;13.496;2024-02-23T14:50:54;2.40;;;0.90;;
26696;SDS011;14312;52.614;13.496;2024-02-23T14:53:41;2.00;;;0.90;;
26696;SDS011;14312;52.614;13.496;2024-02-23T14:56:27;1.63;;;0.90;;
26696;SDS011;14312;52.614;13.496;2024-02-23T14:59:13;1.33;;;0.90;;
26696;SDS011;14312;52.614;13.496;2024-02-23T15:01:58;1.95;;;1.33;;
26696;SDS011;14312;52.614;13.496;2024-02-23T15:04:44;1.60;;;0.90;;
26696;SDS011;14312;52.614;13.496;2024-02-23T15:07:30;0.85;;;0.80;;
26696;SDS011;14312;52.614;13.496;2024-02-23T15:10:16;0.82;;;0.80;;
26696;SDS011;14312;52.614;13.496;2024-02-23T15:13:02;2.00;;;0.80;;
26696;SDS011;14312;52.614;13.496;2024-02-23T15:15:48;0.93;;;0.77;;
26696;SDS011;14312;52.614;13.496;2024-02-23T15:18:34;2.28;;;0.80;;
26696;SDS011;14312;52.614;13.496;2024-02-23T15:21:20;2.15;;;1.02;;
26696;SDS011;14312;52.614;13.496;2024-02-23T15:24:06;2.45;;;0.90;;
26696;SDS011;14312;52.614;13.496;2024-02-23T15:26:53;1.85;;;1.10;;
26696;SDS011;14312;52.614;13.496;2024-02-23T15:29:38;2.13;;;0.90;;
26696;SDS011;14312;52.614;13.496;2024-02-23T15:32:24;2.00;;;0.80;;
26696;SDS011;14312;52.614;13.496;2024-02-23T15:35:10;1.67;;;0.95;;
26696;SDS011;14312;52.614;13.496;2024-02-23T15:37:56;2.55;;;1.05;;
26696;SDS011;14312;52.614;13.496;2024-02-23T15:40:42;1.52;;;0.90;;
26696;SDS011;14312;52.614;13.496;2024-02-23T15:43:28;1.33;;;0.80;;
26696;SDS011;14312;52.614;13.496;2024-02-23T15:46:14;2.20;;;1.20;;
26696;SDS011;14312;52.614;13.496;2024-02-23T15:49:00;2.60;;;0.90;;
26696;SDS011;14312;52.614;13.496;2024-02-23T15:51:46;1.45;;;1.08;;
26696;SDS011;14312;52.614;13.496;2024-02-23T15:54:32;1.38;;;1.10;;
26696;SDS011;14312;52.614;13.496;2024-02-23T15:57:19;1.10;;;0.90;;
26696;SDS011;14312;52.614;13.496;2024-02-23T16:00:07;1.00;;;0.90;;
26696;SDS011;14312;52.614;13.496;2024-02-23T16:02:55;2.63;;;1.15;;
26696;SDS011;14312;52.614;13.496;2024-02-23T16:05:42;2.60;;;1.27;;
26696;SDS011;14312;52.614;13.496;2024-02-23T16:08:41;1.15;;;0.90;;
26696;SDS011;14312;52.614;13.496;2024-02-23T16:11:28;1.20;;;1.10;;
26696;SDS011;14312;52.614;13.496;2024-02-23T16:14:17;1.73;;;1.10;;
26696;SDS011;14312;52.614;13.496;2024-02-23T16:17:03;1.27;;;1.00;;
26696;SDS011;14312;52.614;13.496;2024-02-23T16:19:49;2.83;;;1.17;;
26696;SDS011;14312;52.614;13.496;2024-02-23T16:22:35;1.52;;;0.98;;
26696;SDS011;14312;52.614;13.496;2024-02-23T16:25:21;2.03;;;1.10;;
26696;SDS011;14312;52.614;13.496;2024-02-23T16:28:07;2.92;;;1.40;;
26696;SDS011;14312;52.614;13.496;2024-02-23T16:30:53;2.58;;;1.20;;
26696;SDS011;14312;52.614;13.496;2024-02-23T16:33:39;2.90;;;1.25;;
26696;SDS011;14312;52.614;13.496;2024-02-23T16:36:25;1.20;;;0.85;;
26696;SDS011;14312;52.614;13.496;2024-02-23T16:39:11;1.98;;;1.20;;
26696;SDS011;14312;52.614;13.496;2024-02-23T16:41:57;2.13;;;1.10;;
26696;SDS011;14312;52.614;13.496;2024-02-23T16:44:43;1.15;;;0.98;;
26696;SDS011;14312;52.614;13.496;2024-02-23T16:47:29;2.10;;;1.25;;
26696;SDS011;14312;52.614;13.496;2024-02-23T16:50:15;2.15;;;1.10;;
26696;SDS011;14312;52.614;13.496;2024-02-23T16:53:01;3.22;;;1.45;;
26696;SDS011;14312;52.614;13.496;2024-02-23T16:55:47;2.80;;;1.35;;
26696;SDS011;14312;52.614;13.496;2024-02-23T16:58:33;1.40;;;1.10;;
26696;SDS011;14312;52.614;13.496;2024-02-23T17:01:21;2.38;;;1.45;;
26696;SDS011;14312;52.614;13.496;2024-02-23T17:04:07;1.95;;;1.23;;
26696;SDS011;14312;52.614;13.496;2024-02-23T17:06:53;3.15;;;1.20;;
26696;SDS011;14312;52.614;13.496;2024-02-23T17:09:40;2.42;;;1.40;;
26696;SDS011;14312;52.614;13.496;2024-02-23T17:12:32;2.42;;;1.10;;
26696;SDS011;14312;52.614;13.496;2024-02-23T17:15:18;2.05;;;1.55;;
26696;SDS011;14312;52.614;13.496;2024-02-23T17:18:04;2.25;;;1.40;;
26696;SDS011;14312;52.614;13.496;2024-02-23T17:20:50;2.38;;;1.42;;
26696;SDS011;14312;52.614;13.496;2024-02-23T17:23:37;2.92;;;1.10;;
26696;SDS011;14312;52.614;13.496;2024-02-23T17:26:23;2.33;;;1.17;;
26696;SDS011;14312;52.614;13.496;2024-02-23T17:29:08;2.53;;;1.42;;
26696;SDS011;14312;52.614;13.496;2024-02-23T17:31:56;3.00;;;1.75;;
26696;SDS011;14312;52.614;13.496;2024-02-23T17:34:42;2.15;;;1.20;;
26696;SDS011;14312;52.614;13.496;2024-02-23T17:37:28;2.35;;;1.50;;
26696;SDS011;14312;52.614;13.496;2024-02-23T17:40:14;2.13;;;1.45;;
26696;SDS011;14312;52.614;13.496;2024-02-23T17:43:00;2.05;;;1.55;;
26696;SDS011;14312;52.614;13.496;2024-02-23T17:45:46;2.80;;;1.48;;
26696;SDS011;14312;52.614;13.496;2024-02-23T17:48:32;3.63;;;1.98;;
26696;SDS011;14312;52.614;13.496;2024-02-23T17:51:18;3.50;;;1.52;;
26696;SDS011;14312;52.614;13.496;2024-02-23T17:54:03;2.53;;;1.52;;
26696;SDS011;14312;52.614;13.496;2024-02-23T17:56:50;2.92;;;1.60;;
26696;SDS011;14312;52.614;13.496;2024-02-23T17:59:36;4.07;;;2.10;;
26696;SDS011;14312;52.614;13.496;2024-02-23T18:02:23;2.60;;;1.63;;
26696;SDS011;14312;52.614;13.496;2024-02-23T18:05:09;2.80;;;1.70;;
26696;SDS011;14312;52.614;13.496;2024-02-23T18:07:55;1.67;;;1.35;;
26696;SDS011;14312;52.614;13.496;2024-02-23T18:10:41;2.45;;;1.30;;
26696;SDS011;14312;52.614;13.496;2024-02-23T18:13:26;1.98;;;1.30;;
26696;SDS011;14312;52.614;13.496;2024-02-23T18:16:12;2.28;;;1.55;;
26696;SDS011;14312;52.614;13.496;2024-02-23T18:18:59;2.40;;;1.60;;
26696;SDS011;14312;52.614;13.496;2024-02-23T18:21:48;2.38;;;1.40;;
26696;SDS011;14312;52.614;13.496;2024-02-23T18:24:35;3.65;;;1.92;;
26696;SDS011;14312;52.614;13.496;2024-02-23T18:27:21;2.22;;;1.95;;
26696;SDS011;14312;52.614;13.496;2024-02-23T18:30:07;2.45;;;1.70;;
26696;SDS011;14312;52.614;13.496;2024-02-23T18:32:53;2.65;;;1.60;;
26696;SDS011;14312;52.614;13.496;2024-02-23T18:35:39;2.83;;;1.73;;
26696;SDS011;14312;52.614;13.496;2024-02-23T18:38:25;2.38;;;1.48;;
26696;SDS011;14312;52.614;13.496;2024-02-23T18:41:12;3.45;;;1.63;;
26696;SDS011;14312;52.614;13.496;2024-02-23T18:43:58;4.53;;;2.00;;
26696;SDS011;14312;52.614;13.496;2024-02-23T18:46:44;1.98;;;1.67;;
26696;SDS011;14312;52.614;13.496;2024-02-23T18:49:30;2.20;;;1.45;;
26696;SDS011;14312;52.614;13.496;2024-02-23T18:52:17;3.58;;;2.20;;
26696;SDS011;14312;52.614;13.496;2024-02-23T18:55:03;2.90;;;2.30;;
26696;SDS011;14312;52.614;13.496;2024-02-23T18:57:50;3.80;;;2.28;;
26696;SDS011;14312;52.614;13.496;2024-02-23T19:00:36;3.42;;;2.13;;
26696;SDS011;14312;52.614;13.496;2024-02-23T19:03:22;2.88;;;2.03;;
26696;SDS011;14312;52.614;13.496;2024-02-23T19:06:08;3.10;;;1.95;;
26696;SDS011;14312;52.614;13.496;2024-02-23T19:08:54;3.45;;;1.80;;
26696;SDS011;14312;52.614;13.496;2024-02-23T19:11:40;3.15;;;2.10;;
26696;SDS011;14312;52.614;13.496;2024-02-23T19:14:26;2.22;;;1.60;;
26696;SDS011;14312;52.614;13.496;2024-02-23T19:17:12;2.03;;;1.55;;
26696;SDS011;14312;52.614;13.496;2024-02-23T19:19:58;3.58;;;2.40;;
26696;SDS011;14312;52.614;13.496;2024-02-23T19:22:44;5.07;;;2.08;;
26696;SDS011;14312;52.614;13.496;2024-02-23T19:25:30;3.53;;;2.03;;
26696;SDS011;14312;52.614;13.496;2024-02-23T19:28:16;3.55;;;2.35;;
26696;SDS011;14312;52.614;13.496;2024-02-23T19:31:02;4.32;;;2.42;;
26696;SDS011;14312;52.614;13.496;2024-02-23T19:33:48;4.57;;;2.30;;
26696;SDS011;14312;52.614;13.496;2024-02-23T19:36:35;3.97;;;2.70;;
26696;SDS011;14312;52.614;13.496;2024-02-23T19:39:21;4.90;;;2.88;;
26696;SDS011;14312;52.614;13.496;2024-02-23T19:42:07;4.25;;;2.40;;
26696;SDS011;14312;52.614;13.496;2024-02-23T19:44:53;3.85;;;2.80;;
26696;SDS011;14312;52.614;13.496;2024-02-23T19:47:40;3.63;;;2.60;;
26696;SDS011;14312;52.614;13.496;2024-02-23T19:50:26;3.28;;;2.50;;
26696;SDS011;14312;52.614;13.496;2024-02-23T19:53:12;3.47;;;2.70;;
26696;SDS011;14312;52.614;13.496;2024-02-23T19:55:59;4.13;;;2.70;;
26696;SDS011;14312;52.614;13.496;2024-02-23T19:58:44;4.00;;;2.33;;
26696;SDS011;14312;52.614;13.496;2024-02-23T20:01:30;4.95;;;2.47;;
26696;SDS011;14312;52.614;13.496;2024-02-23T20:04:16;4.93;;;2.60;;
26696;SDS011;14312;52.614;13.496;2024-02-23T20:07:03;2.95;;;2.00;;
26696;SDS011;14312;52.614;13.496;2024-02-23T20:09:53;2.40;;;2.00;;
26696;SDS011;14312;52.614;13.496;2024-02-23T20:12:39;4.38;;;2.15;;
26696;SDS011;14312;52.614;13.496;2024-02-23T20:15:25;3.08;;;1.80;;
26696;SDS011;14312;52.614;13.496;2024-02-23T20:18:10;3.45;;;2.10;;
26696;SDS011;14312;52.614;13.496;2024-02-23T20:20:57;4.50;;;2.40;;
26696;SDS011;14312;52.614;13.496;2024-02-23T20:23:43;4.20;;;2.20;;
26696;SDS011;14312;52.614;13.496;2024-02-23T20:26:29;4.18;;;2.13;;
26696;SDS011;14312;52.614;13.496;2024-02-23T20:29:15;2.40;;;2.08;;
26696;SDS011;14312;52.614;13.496;2024-02-23T20:32:01;5.55;;;2.10;;
26696;SDS011;14312;52.614;13.496;2024-02-23T20:34:50;2.33;;;1.98;;
26696;SDS011;14312;52.614;13.496;2024-02-23T20:37:36;2.35;;;2.15;;
26696;SDS011;14312;52.614;13.496;2024-02-23T20:40:23;3.97;;;1.88;;
26696;SDS011;14312;52.614;13.496;2024-02-23T20:43:09;2.53;;;1.88;;
26696;SDS011;14312;52.614;13.496;2024-02-23T20:45:55;2.15;;;1.95;;
26696;SDS011;14312;52.614;13.496;2024-02-23T20:48:43;2.40;;;1.75;;
26696;SDS011;14312;52.614;13.496;2024-02-23T20:51:29;2.63;;;2.17;;
26696;SDS011;14312;52.614;13.496;2024-02-23T20:54:16;3.00;;;1.73;;
26696;SDS011;14312;52.614;13.496;2024-02-23T20:57:02;2.20;;;1.60;;
26696;SDS011;14312;52.614;13.496;2024-02-23T20:59:48;2.80;;;2.00;;
26696;SDS011;14312;52.614;13.496;2024-02-23T21:02:34;2.30;;;2.03;;
26696;SDS011;14312;52.614;13.496;2024-02-23T21:05:22;2.88;;;2.08;;
26696;SDS011;14312;52.614;13.496;2024-02-23T21:08:08;2.47;;;2.10;;
26696;SDS011;14312;52.614;13.496;2024-02-23T21:10:54;2.92;;;1.95;;
26696;SDS011;14312;52.614;13.496;2024-02-23T21:13:40;1.80;;;1.70;;
26696;SDS011;14312;52.614;13.496;2024-02-23T21:16:26;2.42;;;1.70;;
26696;SDS011;14312;52.614;13.496;2024-02-23T21:19:12;2.67;;;1.80;;
26696;SDS011;14312;52.614;13.496;2024-02-23T21:21:58;1.92;;;1.67;;
26696;SDS011;14312;52.614;13.496;2024-02-23T21:24:45;2.28;;;1.58;;
26696;SDS011;14312;52.614;13.496;2024-02-23T21:27:32;2.28;;;1.77;;
26696;SDS011;14312;52.614;13.496;2024-02-23T21:30:18;2.50;;;1.85;;
26696;SDS011;14312;52.614;13.496;2024-02-23T21:33:04;1.85;;;1.65;;
26696;SDS011;14312;52.614;13.496;2024-02-23T21:35:50;3.70;;;1.80;;
26696;SDS011;14312;52.614;13.496;2024-02-23T21:38:36;2.30;;;1.90;;
26696;SDS011;14312;52.614;13.496;2024-02-23T21:41:21;3.83;;;2.80;;
26696;SDS011;14312;52.614;13.496;2024-02-23T21:44:08;3.97;;;2.67;;
26696;SDS011;14312;52.614;13.496;2024-02-23T21:46:53;3.35;;;2.70;;
26696;SDS011;14312;52.614;13.496;2024-02-23T21:49:39;2.97;;;2.30;;
26696;SDS011;14312;52.614;13.496;2024-02-23T21:52:25;3.42;;;1.90;;
26696;SDS011;14312;52.614;13.496;2024-02-23T21:55:11;3.92;;;1.90;;
26696;SDS011;14312;52.614;13.496;2024-02-23T21:57:57;2.35;;;1.90;;
26696;SDS011;14312;52.614;13.496;2024-02-23T22:00:43;2.88;;;2.10;;
26696;SDS011;14312;52.614;13.496;2024-02-23T22:03:29;2.30;;;2.10;;
26696;SDS011;14312;52.614;13.496;2024-02-23T22:06:18;1.90;;;1.80;;
26696;SDS011;14312;52.614;13.496;2024-02-23T22:09:05;3.90;;;2.03;;
26696;SDS011;14312;52.614;13.496;2024-02-23T22:11:50;2.20;;;2.00;;
26696;SDS011;14312;52.614;13.496;2024-02-23T22:14:38;2.58;;;2.00;;
26696;SDS011;14312;52.614;13.496;2024-02-23T22:17:24;2.35;;;2.15;;
26696;SDS011;14312;52.614;13.496;2024-02-23T22:20:10;2.20;;;2.00;;
26696;SDS011;14312;52.614;13.496;2024-02-23T22:22:56;2.78;;;1.90;;
26696;SDS011;14312;52.614;13.496;2024-02-23T22:25:42;2.92;;;1.90;;
26696;SDS011;14312;52.614;13.496;2024-02-23T22:28:28;3.42;;;3.13;;
26696;SDS011;14312;52.614;13.496;2024-02-23T22:31:14;3.75;;;3.30;;
26696;SDS011;14312;52.614;13.496;2024-02-23T22:34:00;3.40;;;3.10;;
26696;SDS011;14312;52.614;13.496;2024-02-23T22:36:46;4.07;;;3.22;;
26696;SDS011;14312;52.614;13.496;2024-02-23T22:39:32;3.72;;;2.92;;
26696;SDS011;14312;52.614;13.496;2024-02-23T22:42:18;2.70;;;2.30;;
26696;SDS011;14312;52.614;13.496;2024-02-23T22:45:04;2.50;;;2.17;;
26696;SDS011;14312;52.614;13.496;2024-02-23T22:47:50;2.55;;;2.30;;
26696;SDS011;14312;52.614;13.496;2024-02-23T22:50:36;2.65;;;2.28;;
26696;SDS011;14312;52.614;13.496;2024-02-23T22:53:22;3.00;;;2.20;;
26696;SDS011;14312;52.614;13.496;2024-02-23T22:56:08;3.03;;;2.30;;
26696;SDS011;14312;52.614;13.496;2024-02-23T22:58:54;2.20;;;2.00;;
26696;SDS011;14312;52.614;13.496;2024-02-23T23:01:40;2.20;;;1.77;;
26696;SDS011;14312;52.614;13.496;2024-02-23T23:04:26;3.15;;;2.00;;
26696;SDS011;14312;52.614;13.496;2024-02-23T23:07:13;2.28;;;1.98;;
26696;SDS011;14312;52.614;13.496;2024-02-23T23:09:58;3.72;;;2.20;;
26696;SDS011;14312;52.614;13.496;2024-02-23T23:12:44;2.33;;;2.13;;
26696;SDS011;14312;52.614;13.496;2024-02-23T23:15:30;3.10;;;2.25;;
26696;SDS011;14312;52.614;13.496;2024-02-23T23:18:16;3.17;;;2.20;;
26696;SDS011;14312;52.614;13.496;2024-02-23T23:21:02;2.78;;;1.95;;
26696;SDS011;14312;52.614;13.496;2024-02-23T23:23:50;3.05;;;2.10;;
26696;SDS011;14312;52.614;13.496;2024-02-23T23:26:36;2.75;;;1.80;;
26696;SDS011;14312;52.614;13.496;2024-02-23T23:29:22;1.90;;;1.70;;
26696;SDS011;14312;52.614;13.496;2024-02-23T23:32:08;2.25;;;2.00;;
26696;SDS011;14312;52.614;13.496;2024-02-23T23:34:55;2.25;;;1.90;;
26696;SDS011;14312;52.614;13.496;2024-02-23T23:37:41;2.53;;;1.98;;
26696;SDS011;14312;52.614;13.496;2024-02-23T23:40:27;2.30;;;1.65;;
26696;SDS011;14312;52.614;13.496;2024-02-23T23:43:13;2.50;;;1.92;;
26696;SDS011;14312;52.614;13.496;2024-02-23T23:45:59;2.15;;;1.90;;
26696;SDS011;14312;52.614;13.496;2024-02-23T23:48:45;2.67;;;2.17;;
26696;SDS011;14312;52.614;13.496;2024-02-23T23:51:31;3.05;;;2.00;;
26696;SDS011;14312;52.614;13.496;2024-02-23T23:54:17;2.10;;;1.90;;
26696;SDS011;14312;52.614;13.496;2024-02-23T23:57:03;2.25;;;1.88;;
26696;SDS011;14312;52.614;13.496;2024-02-23T23:59:49;1.88;;;1.77;;
